Tropical Cyclones
[Index]
Main Index Home Page Stock Weather Photos Extreme Storms Discussion Storm News and Storm Chasing Reports Tropical Cyclones / Hurricanes / Typhoons Weather Data and Links Wild Fires / Bushfires Weather Observation Techniques Weather Picture Catalogue Tornado Pictures and Reports Stock Video Footage and DVDs for sale
Season 2009-2010 Tropical Cyclone TROP-DISTURBANCE-06 Track Map
Season 2009-2010 Summaries (Operational Data): [AU] [SIO] [SPAC] [SH]
<<- Previous TC | 2009-2010 Season | Next TC ->>

click for intensity scale information  Lat/long Grid: Show Hide

 Date Labels: Show Hide

Operational Tropical Cyclone Data

Name: TROP-DISTURBANCE-06
Number: 10PC

29 Mar 2010 06:00 UTC to 04 Apr 2010 00:00 UTC

    date/time    lat    long     hPa   cat  kts
2010-03-29 06   15.0   169.0W   1008         25          
2010-03-29 18   16.0   168.0    1008         25          
2010-03-30 06   18.0   167.0    1009         25          
2010-03-30 18   20.0   172.0    1008         25          
2010-03-31 00   21.3   170.3    1008         30          
2010-03-31 06   21.4   170.6    1007         30          
2010-03-31 12   21.7   170.5    1007         30          
2010-03-31 18   21.5   170.5    1007         30          
2010-04-01 00   19.3   170.5    1007    1    35          
2010-04-01 06   19.4   171.9    1005         30          
2010-04-01 12   19.3   172.0    1005         30          
2010-04-01 18   19.3   172.1    1005         30          
2010-04-01 21   19.3   172.0    1006         30          
2010-04-02 06   19.9   172.5    1004         30          
2010-04-02 18   22.4   174.7    1004         30          
2010-04-02 21   22.8   175.5    1004         30          
2010-04-03 06   23.0   177.2    1003         30          
2010-04-03 09   23.2   178.0    1003         30          
2010-04-03 18   29.0   180.0     997    1    40          
2010-04-04 00   30.0   179.0W    996    1    40          
Winds are 10-min average.

Tropical cyclone tracks developed by Michael Bath using operational warnings and advisories and Google Maps.


[Australian Severe Weather index] [Copyright Notice] [Email Contacts] [Search This Site] [Privacy Policy]
Document: tropical_cyclone_trop-disturbance-06.htm Updated: 28 May 2013